createdAt,value
2022-11-30T00:01:22.194Z,8.85
2022-11-30T00:03:53.359Z,7.22
2022-11-30T00:06:23.228Z,8.30
2022-11-30T00:08:57.199Z,7.13
2022-11-30T00:11:28.358Z,6.68
2022-11-30T00:13:55.745Z,7.35
2022-11-30T00:16:22.887Z,7.88
2022-11-30T00:18:50.540Z,7.28
2022-11-30T00:23:47.204Z,7.22
2022-11-30T00:26:18.441Z,7.45
2022-11-30T00:28:47.529Z,6.78
2022-11-30T00:31:17.460Z,5.55
2022-11-30T00:33:44.877Z,7.88
2022-11-30T00:36:16.008Z,6.63
2022-11-30T00:38:43.926Z,6.80
2022-11-30T00:41:11.984Z,6.97
2022-11-30T00:43:38.865Z,9.73
2022-11-30T00:46:06.522Z,7.72
2022-11-30T00:48:33.427Z,6.97
2022-11-30T00:51:00.280Z,7.47
2022-11-30T00:53:27.509Z,7.38
2022-11-30T00:55:54.626Z,6.95
2022-11-30T00:58:22.125Z,6.63
2022-11-30T01:00:49.250Z,9.50
2022-11-30T01:03:16.064Z,6.88
2022-11-30T01:05:43.314Z,7.40
2022-11-30T01:08:12.739Z,6.70
2022-11-30T01:10:42.495Z,4.90
2022-11-30T01:13:11.716Z,5.90
2022-11-30T01:15:42.625Z,6.63
2022-11-30T01:18:10.701Z,7.50
2022-11-30T01:20:42.428Z,5.55
2022-11-30T01:23:10.141Z,7.25
2022-11-30T01:28:03.902Z,6.85
2022-11-30T01:30:30.834Z,5.32
2022-11-30T01:33:04.267Z,8.20
2022-11-30T01:35:31.054Z,6.50
2022-11-30T01:37:57.824Z,9.40
2022-11-30T01:40:24.632Z,8.13
2022-11-30T01:42:51.565Z,7.37
2022-11-30T01:45:18.476Z,8.13
2022-11-30T01:47:52.593Z,6.88
2022-11-30T01:50:25.732Z,10.20
2022-11-30T01:52:56.708Z,8.65
2022-11-30T01:55:36.793Z,7.72
2022-11-30T01:58:16.697Z,6.75
2022-11-30T02:00:48.146Z,8.18
2022-11-30T02:03:45.167Z,7.80
2022-11-30T02:06:12.412Z,7.15
2022-11-30T02:08:39.342Z,7.72
2022-11-30T02:11:14.242Z,7.30
2022-11-30T02:14:10.636Z,7.50
2022-11-30T02:16:58.464Z,6.65
2022-11-30T02:20:09.263Z,7.93
2022-11-30T02:22:57.806Z,9.52
2022-11-30T02:25:47.924Z,7.10
2022-11-30T02:28:47.803Z,9.07
2022-11-30T02:31:25.243Z,9.13
2022-11-30T02:33:55.984Z,9.93
2022-11-30T02:36:30.468Z,6.68
2022-11-30T02:38:58.253Z,8.20
2022-11-30T02:41:25.042Z,8.25
2022-11-30T02:43:52.349Z,7.90
2022-11-30T02:46:44.564Z,8.40
2022-11-30T02:49:48.086Z,8.32
2022-11-30T02:52:16.675Z,7.15
2022-11-30T02:54:43.713Z,7.13
2022-11-30T02:57:12.425Z,7.53
2022-11-30T02:59:39.748Z,6.85
2022-11-30T03:02:06.969Z,6.72
2022-11-30T03:04:33.888Z,8.18
2022-11-30T03:07:00.771Z,6.13
2022-11-30T03:09:27.685Z,7.57
2022-11-30T03:11:54.588Z,7.68
2022-11-30T03:14:21.410Z,5.70
2022-11-30T03:16:48.242Z,5.22
2022-11-30T03:19:15.123Z,6.47
2022-11-30T03:21:41.928Z,7.28
2022-11-30T03:24:09.002Z,7.60
2022-11-30T03:26:36.197Z,8.48
2022-11-30T03:29:03.294Z,6.15
2022-11-30T03:31:30.288Z,8.57
2022-11-30T03:33:57.389Z,7.45
2022-11-30T03:36:24.266Z,7.95
2022-11-30T03:38:51.177Z,6.50
2022-11-30T03:41:18.859Z,7.78
2022-11-30T03:46:14.468Z,6.25
2022-11-30T03:48:41.659Z,6.20
2022-11-30T03:51:10.477Z,10.32
2022-11-30T03:53:37.668Z,6.63
2022-11-30T03:56:08.994Z,7.30
2022-11-30T03:58:35.875Z,6.28
2022-11-30T04:01:13.492Z,7.25
2022-11-30T04:03:40.784Z,8.35
2022-11-30T04:06:10.453Z,5.30
2022-11-30T04:08:38.455Z,8.80
2022-11-30T04:11:06.293Z,6.55
2022-11-30T04:13:35.667Z,6.72
2022-11-30T04:16:03.289Z,6.03
2022-11-30T04:21:00.766Z,6.30
2022-11-30T04:23:34.598Z,6.13
2022-11-30T04:26:05.615Z,5.47
2022-11-30T04:28:33.325Z,5.32
2022-11-30T04:33:28.897Z,5.00
2022-11-30T04:35:59.910Z,5.47
2022-11-30T04:38:28.739Z,5.43
2022-11-30T04:40:56.203Z,4.35
2022-11-30T04:43:24.783Z,6.68
2022-11-30T04:45:51.930Z,5.88
2022-11-30T04:48:19.725Z,6.68
2022-11-30T04:50:46.559Z,8.77
2022-11-30T04:53:13.486Z,7.80
2022-11-30T04:55:40.572Z,5.53
2022-11-30T04:58:07.725Z,6.95
2022-11-30T05:00:35.730Z,6.22
2022-11-30T05:03:03.001Z,5.45
2022-11-30T05:05:29.911Z,6.25
2022-11-30T05:07:59.528Z,5.25
2022-11-30T05:10:28.461Z,6.88
2022-11-30T05:12:56.757Z,9.48
2022-11-30T05:15:23.670Z,7.72
2022-11-30T05:17:50.501Z,6.43
2022-11-30T05:20:17.529Z,8.93
2022-11-30T05:22:44.339Z,8.45
2022-11-30T05:25:11.279Z,8.38
2022-11-30T05:27:38.316Z,8.43
2022-11-30T05:30:06.498Z,9.02
2022-11-30T05:32:33.428Z,8.57
2022-11-30T05:35:00.274Z,11.07
2022-11-30T05:37:27.219Z,9.82
2022-11-30T05:39:54.020Z,7.28
2022-11-30T05:42:21.455Z,9.40
2022-11-30T05:44:48.564Z,8.00
2022-11-30T05:47:15.900Z,8.95
2022-11-30T05:49:42.920Z,9.82
2022-11-30T05:52:10.185Z,9.95
2022-11-30T05:54:37.011Z,9.43
2022-11-30T05:57:05.271Z,9.17
2022-11-30T05:59:32.256Z,8.45
2022-11-30T06:01:59.175Z,9.45
2022-11-30T06:04:26.259Z,11.63
2022-11-30T06:06:55.522Z,8.35
2022-11-30T06:09:23.523Z,9.68
2022-11-30T06:11:51.025Z,9.05
2022-11-30T06:14:18.269Z,11.05
2022-11-30T06:16:45.363Z,8.25
2022-11-30T06:19:12.411Z,8.50
2022-11-30T06:21:39.267Z,8.35
2022-11-30T06:24:06.694Z,9.70
2022-11-30T06:26:33.578Z,9.02
2022-11-30T06:29:00.416Z,8.82
2022-11-30T06:31:27.341Z,7.63
2022-11-30T06:33:58.037Z,9.25
2022-11-30T06:36:25.147Z,9.65
2022-11-30T06:38:52.348Z,10.07
2022-11-30T06:41:19.376Z,10.00
2022-11-30T06:43:46.245Z,7.65
2022-11-30T06:46:13.058Z,10.52
2022-11-30T06:48:41.085Z,8.40
2022-11-30T06:51:20.221Z,12.05
2022-11-30T06:53:47.263Z,8.80
2022-11-30T06:56:14.142Z,8.50
2022-11-30T06:58:42.239Z,10.95
2022-11-30T07:01:13.240Z,9.73
2022-11-30T07:03:41.676Z,8.20
2022-11-30T07:06:14.466Z,7.68
2022-11-30T07:08:42.748Z,9.90
2022-11-30T07:11:12.227Z,9.60
2022-11-30T07:13:39.626Z,9.23
2022-11-30T07:16:10.488Z,7.40
2022-11-30T07:18:37.448Z,10.82
2022-11-30T07:21:06.183Z,9.38
2022-11-30T07:23:56.242Z,7.63
2022-11-30T07:26:25.223Z,6.38
2022-11-30T07:28:55.192Z,8.35
2022-11-30T07:31:30.767Z,8.07
2022-11-30T07:33:59.429Z,6.40
2022-11-30T07:36:27.854Z,7.30
2022-11-30T07:38:54.680Z,6.97
2022-11-30T07:41:24.846Z,6.90
2022-11-30T07:43:51.785Z,7.43
2022-11-30T07:46:19.071Z,7.72
2022-11-30T07:48:46.519Z,5.78
2022-11-30T07:51:20.905Z,7.72
2022-11-30T07:53:48.440Z,6.50
2022-11-30T07:56:20.995Z,7.63
2022-11-30T07:58:50.498Z,7.07
2022-11-30T08:01:23.905Z,8.48
2022-11-30T08:03:52.150Z,9.07
2022-11-30T08:06:30.899Z,7.95
2022-11-30T08:09:01.796Z,7.40
2022-11-30T08:11:33.325Z,7.45
2022-11-30T08:14:01.633Z,7.22
2022-11-30T08:16:30.992Z,5.88
2022-11-30T08:18:59.240Z,5.95
2022-11-30T08:21:26.369Z,6.78
2022-11-30T08:23:58.433Z,7.47
2022-11-30T08:26:30.173Z,6.70
2022-11-30T08:29:00.022Z,6.20
2022-11-30T08:31:38.164Z,6.43
2022-11-30T08:37:02.421Z,6.20
2022-11-30T08:39:34.080Z,6.55
2022-11-30T08:42:08.582Z,5.30
2022-11-30T08:44:43.181Z,7.03
2022-11-30T08:47:12.406Z,6.90
2022-11-30T08:49:39.323Z,6.93
2022-11-30T08:52:16.818Z,8.13
2022-11-30T08:54:47.489Z,6.00
2022-11-30T08:57:21.094Z,7.75
2022-11-30T08:59:48.703Z,6.93
2022-11-30T09:04:48.662Z,5.57
2022-11-30T09:07:15.457Z,6.65
2022-11-30T09:09:42.453Z,5.40
2022-11-30T09:12:09.406Z,5.75
2022-11-30T09:14:36.405Z,7.57
2022-11-30T09:17:04.203Z,5.32
2022-11-30T09:19:31.143Z,8.45
2022-11-30T09:21:58.026Z,6.72
2022-11-30T09:24:25.008Z,7.00
2022-11-30T09:26:55.696Z,4.85
2022-11-30T09:29:22.700Z,5.90
2022-11-30T09:31:49.580Z,5.68
2022-11-30T09:34:16.437Z,5.78
2022-11-30T09:36:43.266Z,5.70
2022-11-30T09:39:12.898Z,4.97
2022-11-30T09:42:05.042Z,5.10
2022-11-30T09:44:53.507Z,5.68
2022-11-30T09:48:14.835Z,5.50
2022-11-30T09:50:44.679Z,5.45
2022-11-30T09:53:51.513Z,5.25
2022-11-30T09:56:32.044Z,5.22
2022-11-30T09:59:24.852Z,5.95
2022-11-30T10:01:56.546Z,6.18
2022-11-30T10:04:29.858Z,7.05
2022-11-30T10:07:25.067Z,5.45
2022-11-30T10:10:30.160Z,5.60
2022-11-30T10:13:36.626Z,7.63
2022-11-30T10:16:32.473Z,4.75
2022-11-30T10:19:14.274Z,7.00
2022-11-30T10:22:42.327Z,5.80
2022-11-30T10:25:36.305Z,6.13
2022-11-30T10:28:45.769Z,6.28
2022-11-30T10:31:30.003Z,6.53
2022-11-30T10:34:15.512Z,6.13
2022-11-30T10:36:48.106Z,5.95
2022-11-30T10:39:26.961Z,5.43
2022-11-30T10:42:07.184Z,6.78
2022-11-30T10:44:40.614Z,5.30
2022-11-30T10:47:24.518Z,5.05
2022-11-30T10:49:52.797Z,5.53
2022-11-30T10:52:28.908Z,5.10
2022-11-30T10:55:03.617Z,6.25
2022-11-30T10:58:03.060Z,6.88
2022-11-30T11:00:29.945Z,6.15
2022-11-30T11:02:57.075Z,3.92
2022-11-30T11:05:26.830Z,5.13
2022-11-30T11:08:22.741Z,4.75
2022-11-30T11:10:51.478Z,5.53
2022-11-30T11:13:40.077Z,4.97
2022-11-30T11:16:13.669Z,5.80
2022-11-30T11:18:57.767Z,4.57
2022-11-30T11:21:25.261Z,4.13
2022-11-30T11:23:55.667Z,5.25
2022-11-30T11:26:28.363Z,5.35
2022-11-30T11:29:01.318Z,6.38
2022-11-30T11:31:48.984Z,5.15
2022-11-30T11:34:31.676Z,4.50
2022-11-30T11:37:33.165Z,4.35
2022-11-30T11:40:11.792Z,6.32
2022-11-30T11:42:58.356Z,5.25
2022-11-30T11:45:30.723Z,6.00
2022-11-30T11:48:06.316Z,6.05
2022-11-30T11:53:51.529Z,6.60
2022-11-30T11:56:33.942Z,4.95
2022-11-30T11:59:10.762Z,5.38
2022-11-30T12:02:23.715Z,4.55
2022-11-30T12:04:54.097Z,4.97
2022-11-30T12:07:41.661Z,4.85
2022-11-30T12:13:33.168Z,4.57
2022-11-30T12:16:17.148Z,4.72
2022-11-30T12:18:53.956Z,5.55
2022-11-30T12:21:42.598Z,3.65
2022-11-30T12:24:36.595Z,4.38
2022-11-30T12:27:37.173Z,4.53
2022-11-30T12:30:28.377Z,5.55
2022-11-30T12:33:36.074Z,4.80
2022-11-30T12:36:43.339Z,4.70
2022-11-30T12:39:26.945Z,4.82
2022-11-30T12:42:05.939Z,5.55
2022-11-30T12:45:02.606Z,4.22
2022-11-30T12:47:47.361Z,5.78
2022-11-30T12:51:10.647Z,4.60
2022-11-30T12:54:06.646Z,4.20
2022-11-30T12:56:57.736Z,4.55
2022-11-30T12:59:33.430Z,5.53
2022-11-30T13:02:40.001Z,4.32
2022-11-30T13:05:12.693Z,4.25
2022-11-30T13:08:07.903Z,3.88
2022-11-30T13:10:49.328Z,4.07
2022-11-30T13:13:22.549Z,3.80
2022-11-30T13:15:49.804Z,3.95
2022-11-30T13:18:20.706Z,3.83
2022-11-30T13:21:19.524Z,5.47
2022-11-30T13:24:08.456Z,4.03
2022-11-30T13:29:39.522Z,4.68
2022-11-30T13:32:33.801Z,4.65
2022-11-30T13:35:30.474Z,3.97
2022-11-30T13:41:08.915Z,3.58
2022-11-30T13:43:57.706Z,3.67
2022-11-30T13:46:24.939Z,4.93
2022-11-30T13:49:24.265Z,4.22
2022-11-30T13:52:20.052Z,3.70
2022-11-30T13:54:40.511Z,3.65
2022-11-30T13:57:28.706Z,3.72
2022-11-30T13:59:57.245Z,3.85
2022-11-30T14:02:33.322Z,4.50
2022-11-30T14:05:18.311Z,4.38
2022-11-30T14:07:52.432Z,4.38
2022-11-30T14:10:31.376Z,4.47
2022-11-30T14:13:04.304Z,6.05
2022-11-30T14:15:41.701Z,5.72
2022-11-30T14:18:08.505Z,4.73
2022-11-30T14:21:01.681Z,5.03
2022-11-30T14:24:01.132Z,3.95
2022-11-30T14:26:38.211Z,4.25
2022-11-30T14:29:08.008Z,4.45
2022-11-30T14:31:53.119Z,3.88
2022-11-30T14:34:41.201Z,5.43
2022-11-30T14:37:42.300Z,5.87
2022-11-30T14:40:19.044Z,4.20
2022-11-30T14:42:59.347Z,4.00
2022-11-30T14:45:28.627Z,5.43
2022-11-30T14:48:10.265Z,4.30
2022-11-30T14:50:43.761Z,6.07
2022-11-30T14:53:51.051Z,5.07
2022-11-30T14:56:47.843Z,8.00
2022-11-30T14:59:47.326Z,5.97
2022-11-30T15:02:35.046Z,9.07
2022-11-30T15:05:02.271Z,4.38
2022-11-30T15:07:30.130Z,6.85
2022-11-30T15:10:36.015Z,6.22
2022-11-30T15:13:03.775Z,5.10
2022-11-30T15:18:14.051Z,6.85
2022-11-30T15:21:00.127Z,4.38
2022-11-30T15:23:27.075Z,5.40
2022-11-30T15:26:09.525Z,4.70
2022-11-30T15:28:47.225Z,4.80
2022-11-30T15:31:16.568Z,5.00
2022-11-30T15:33:47.976Z,4.38
2022-11-30T15:36:31.779Z,4.93
2022-11-30T15:39:03.577Z,5.82
2022-11-30T15:41:33.417Z,3.92
2022-11-30T15:44:04.393Z,4.22
2022-11-30T15:46:44.494Z,3.92
2022-11-30T15:49:17.015Z,4.45
2022-11-30T15:51:48.703Z,5.30
2022-11-30T15:54:17.786Z,4.10
2022-11-30T15:56:57.229Z,4.30
2022-11-30T15:59:28.899Z,3.83
2022-11-30T16:02:02.336Z,3.83
2022-11-30T16:04:58.117Z,4.85
2022-11-30T16:07:29.014Z,4.65
2022-11-30T16:10:14.402Z,4.47
2022-11-30T16:12:43.876Z,3.63
2022-11-30T16:15:23.670Z,4.65
2022-11-30T16:17:54.048Z,4.43
2022-11-30T16:20:21.148Z,3.75
2022-11-30T16:22:49.340Z,4.10
2022-11-30T16:25:24.274Z,4.50
2022-11-30T16:27:51.708Z,4.68
2022-11-30T16:30:22.914Z,4.13
2022-11-30T16:32:50.350Z,4.95
2022-11-30T16:35:22.548Z,4.82
2022-11-30T16:37:50.711Z,4.68
2022-11-30T16:40:18.901Z,6.95
2022-11-30T16:42:45.910Z,6.15
2022-11-30T16:45:37.450Z,7.35
2022-11-30T16:48:05.634Z,8.70
2022-11-30T16:50:34.974Z,7.32
2022-11-30T16:53:09.938Z,5.35
2022-11-30T16:55:38.988Z,3.60
2022-11-30T16:58:05.801Z,6.13
2022-11-30T17:00:34.307Z,2.63
2022-11-30T17:03:15.988Z,2.58
2022-11-30T17:05:42.789Z,2.28
2022-11-30T17:08:10.854Z,1.83
2022-11-30T17:10:40.834Z,1.58
2022-11-30T17:13:13.988Z,1.88
2022-11-30T17:15:41.178Z,3.20
2022-11-30T17:18:08.009Z,1.30
2022-11-30T17:20:37.967Z,1.27
2022-11-30T17:23:10.554Z,1.67
2022-11-30T17:25:37.688Z,1.45
2022-11-30T17:28:04.637Z,1.00
2022-11-30T17:30:31.676Z,1.70
2022-11-30T17:32:58.551Z,1.70
2022-11-30T17:35:25.475Z,1.42
2022-11-30T17:37:54.304Z,1.65
2022-11-30T17:40:21.223Z,1.65
2022-11-30T17:42:48.156Z,1.10
2022-11-30T17:45:15.089Z,1.25
2022-11-30T17:47:41.942Z,2.85
2022-11-30T17:50:09.714Z,1.80
2022-11-30T17:52:36.543Z,1.73
2022-11-30T17:55:03.550Z,1.50
2022-11-30T17:57:30.371Z,1.77
2022-11-30T17:59:57.220Z,1.60
2022-11-30T18:02:24.211Z,1.17
2022-11-30T18:04:52.495Z,1.40
2022-11-30T18:07:20.084Z,1.38
2022-11-30T18:12:14.095Z,1.00
2022-11-30T18:14:40.904Z,1.45
2022-11-30T18:17:07.902Z,1.27
2022-11-30T18:19:34.870Z,1.85
2022-11-30T18:22:01.793Z,1.38
2022-11-30T18:24:28.622Z,1.35
2022-11-30T18:26:55.559Z,1.40
2022-11-30T18:29:22.587Z,2.75
2022-11-30T18:31:50.217Z,2.25
2022-11-30T18:34:17.125Z,2.65
2022-11-30T18:36:43.964Z,2.72
2022-11-30T18:39:10.942Z,3.92
2022-11-30T18:41:37.818Z,3.80
2022-11-30T18:44:04.951Z,3.25
2022-11-30T18:46:31.987Z,4.45
2022-11-30T18:48:59.537Z,4.22
2022-11-30T18:51:29.509Z,5.32
2022-11-30T18:54:01.965Z,5.30
2022-11-30T18:56:32.285Z,10.20
2022-11-30T18:59:12.040Z,4.55
2022-11-30T19:01:39.134Z,3.65
2022-11-30T19:04:10.177Z,3.15
2022-11-30T19:06:40.780Z,4.82
2022-11-30T19:09:11.655Z,5.25
2022-11-30T19:11:46.903Z,4.65
2022-11-30T19:14:16.780Z,3.03
2022-11-30T19:16:44.363Z,2.80
2022-11-30T19:21:45.279Z,3.22
2022-11-30T19:24:12.060Z,3.50
2022-11-30T19:26:40.116Z,5.23
2022-11-30T19:29:07.935Z,3.30
2022-11-30T19:31:34.919Z,1.95
2022-11-30T19:34:05.551Z,2.50
2022-11-30T19:36:36.096Z,2.70
2022-11-30T19:39:02.981Z,1.83
2022-11-30T19:41:29.849Z,2.20
2022-11-30T19:44:03.505Z,1.85
2022-11-30T19:46:33.009Z,1.95
2022-11-30T19:49:01.984Z,2.78
2022-11-30T19:51:30.568Z,2.08
2022-11-30T19:53:59.288Z,2.20
2022-11-30T19:56:27.972Z,2.80
2022-11-30T19:58:59.953Z,3.70
2022-11-30T20:01:30.902Z,2.67
2022-11-30T20:03:58.420Z,4.50
2022-11-30T20:06:32.892Z,4.70
2022-11-30T20:09:00.209Z,4.97
2022-11-30T20:11:27.015Z,5.03
2022-11-30T20:13:54.177Z,3.07
2022-11-30T20:16:23.079Z,2.92
2022-11-30T20:18:57.201Z,2.35
2022-11-30T20:21:31.633Z,2.28
2022-11-30T20:24:02.543Z,2.00
2022-11-30T20:26:42.140Z,1.70
2022-11-30T20:29:14.704Z,2.00
2022-11-30T20:31:43.394Z,1.98
2022-11-30T20:34:10.587Z,1.73
2022-11-30T20:36:37.845Z,1.90
2022-11-30T20:39:06.412Z,2.08
2022-11-30T20:41:34.092Z,2.65
2022-11-30T20:46:31.611Z,2.28
2022-11-30T20:49:00.611Z,3.00
2022-11-30T20:51:34.631Z,2.45
2022-11-30T20:54:07.314Z,2.70
2022-11-30T20:56:38.424Z,2.38
2022-11-30T20:59:12.116Z,2.08
2022-11-30T21:01:43.892Z,2.88
2022-11-30T21:04:11.594Z,2.22
2022-11-30T21:09:05.481Z,3.28
2022-11-30T21:11:32.310Z,4.30
2022-11-30T21:13:59.450Z,3.60
2022-11-30T21:16:29.510Z,3.70
2022-11-30T21:19:00.187Z,4.38
2022-11-30T21:21:31.464Z,4.78
2022-11-30T21:24:01.601Z,3.47
2022-11-30T21:26:33.241Z,3.63
2022-11-30T21:29:11.614Z,3.45
2022-11-30T21:31:38.922Z,3.70
2022-11-30T21:34:06.217Z,4.07
2022-11-30T21:36:33.144Z,4.18
2022-11-30T21:39:06.458Z,3.83
2022-11-30T21:41:39.485Z,4.18
2022-11-30T21:44:10.283Z,3.95
2022-11-30T21:46:37.522Z,3.83
2022-11-30T21:49:04.553Z,4.32
2022-11-30T21:51:31.995Z,4.30
2022-11-30T21:54:02.998Z,5.60
2022-11-30T21:56:37.045Z,4.32
2022-11-30T21:59:06.522Z,3.80
2022-11-30T22:01:37.916Z,3.85
2022-11-30T22:04:07.639Z,3.60
2022-11-30T22:06:37.274Z,4.43
2022-11-30T22:09:12.821Z,4.53
2022-11-30T22:11:43.097Z,3.65
2022-11-30T22:14:13.371Z,4.00
2022-11-30T22:16:40.423Z,4.22
2022-11-30T22:19:07.446Z,4.07
2022-11-30T22:21:35.480Z,3.20
2022-11-30T22:24:10.589Z,4.38
2022-11-30T22:26:43.222Z,4.43
2022-11-30T22:29:22.154Z,3.38
2022-11-30T22:31:52.805Z,3.72
2022-11-30T22:34:20.951Z,3.78
2022-11-30T22:36:48.494Z,3.95
2022-11-30T22:39:21.765Z,4.57
2022-11-30T22:41:55.093Z,5.78
2022-11-30T22:44:23.877Z,4.57
2022-11-30T22:46:50.764Z,4.70
2022-11-30T22:49:21.061Z,4.82
2022-11-30T22:51:49.364Z,5.25
2022-11-30T22:56:44.186Z,5.82
2022-11-30T22:59:13.414Z,4.95
2022-11-30T23:01:45.768Z,5.22
2022-11-30T23:04:16.773Z,6.35
2022-11-30T23:06:45.418Z,4.78
2022-11-30T23:09:17.149Z,4.10
2022-11-30T23:11:44.537Z,5.43
2022-11-30T23:14:12.236Z,4.45
2022-11-30T23:16:40.000Z,6.97
2022-11-30T23:19:08.423Z,6.20
2022-11-30T23:21:42.289Z,5.80
2022-11-30T23:24:15.803Z,5.72
2022-11-30T23:26:43.895Z,5.07
2022-11-30T23:29:14.648Z,4.30
2022-11-30T23:31:43.783Z,5.43
2022-11-30T23:34:22.143Z,4.50
2022-11-30T23:36:50.145Z,5.07
2022-11-30T23:39:19.410Z,5.70
2022-11-30T23:41:46.418Z,5.75
2022-11-30T23:44:13.520Z,4.18
2022-11-30T23:46:40.815Z,4.50
2022-11-30T23:49:08.185Z,5.45
2022-11-30T23:51:35.337Z,6.55
2022-11-30T23:54:02.208Z,5.68
2022-11-30T23:56:29.055Z,5.63
2022-11-30T23:58:55.896Z,4.80
